createdAt,value
2019-06-07T00:02:02.990Z,101180.77
2019-06-07T00:04:33.073Z,101182.53
2019-06-07T00:07:03.247Z,101175.30
2019-06-07T00:09:33.299Z,101174.37
2019-06-07T00:12:03.425Z,101178.28
2019-06-07T00:14:39.500Z,101172.39
2019-06-07T00:17:07.784Z,101176.09
2019-06-07T00:19:44.791Z,101178.23
2019-06-07T00:22:23.665Z,101171.58
2019-06-07T00:24:48.165Z,101179.87
2019-06-07T00:27:20.623Z,101181.06
2019-06-07T00:29:53.586Z,101184.59
2019-06-07T00:32:26.994Z,101181.12
2019-06-07T00:35:00.542Z,101191.15
2019-06-07T00:37:32.917Z,101184.55
2019-06-07T00:40:16.386Z,101183.15
2019-06-07T00:42:38.846Z,101183.22
2019-06-07T00:45:14.704Z,101184.88
2019-06-07T00:47:48.896Z,101180.69
2019-06-07T00:50:23.452Z,101181.42
2019-06-07T00:55:27.210Z,101179.77
2019-06-07T00:57:56.103Z,101182.30
2019-06-07T01:00:35.539Z,101186.30
2019-06-07T01:03:05.712Z,101179.02
2019-06-07T01:05:36.293Z,101184.61
2019-06-07T01:08:09.414Z,101177.66
2019-06-07T01:10:52.939Z,101177.66
2019-06-07T01:13:15.471Z,101174.91
2019-06-07T01:15:48.774Z,101169.66
2019-06-07T01:18:37.746Z,101155.21
2019-06-07T01:20:58.631Z,101162.28
2019-06-07T01:24:04.693Z,101163.34
2019-06-07T01:26:00.884Z,101164.48
2019-06-07T01:28:36.640Z,101165.67
2019-06-07T01:31:06.696Z,101166.45
2019-06-07T01:33:50.433Z,101171.94
2019-06-07T01:36:13.030Z,101170.62
2019-06-07T01:38:45.764Z,101171.19
2019-06-07T01:41:22.076Z,101169.81
2019-06-07T01:43:51.382Z,101175.75
2019-06-07T01:46:26.669Z,101170.12
2019-06-07T01:48:59.538Z,101161.94
2019-06-07T01:51:30.718Z,101165.19
2019-06-07T01:54:48.726Z,101172.67
2019-06-07T01:56:34.962Z,101171.00
2019-06-07T01:59:05.115Z,101156.63
2019-06-07T02:01:37.583Z,101154.89
2019-06-07T02:04:08.425Z,101161.52
2019-06-07T02:06:39.227Z,101164.20
2019-06-07T02:09:11.870Z,101168.25
2019-06-07T02:11:43.407Z,101171.88
2019-06-07T02:14:15.213Z,101172.05
2019-06-07T02:16:45.481Z,101172.22
2019-06-07T02:19:17.068Z,101174.12
2019-06-07T02:21:52.398Z,101182.10
2019-06-07T02:24:28.849Z,101170.41
2019-06-07T02:26:57.622Z,101166.59
2019-06-07T02:29:33.532Z,101159.34
2019-06-07T02:32:02.670Z,101146.67
2019-06-07T02:34:38.599Z,101154.51
2019-06-07T02:37:09.447Z,101152.69
2019-06-07T02:39:41.014Z,101152.14
2019-06-07T02:42:11.493Z,101144.10
2019-06-07T02:44:42.759Z,101145.59
2019-06-07T02:47:14.766Z,101147.61
2019-06-07T02:49:46.753Z,101142.81
2019-06-07T02:52:17.098Z,101143.69
2019-06-07T02:54:47.080Z,101139.65
2019-06-07T02:57:24.918Z,101133.41
2019-06-07T03:00:07.831Z,101135.61
2019-06-07T03:02:33.496Z,101131.89
2019-06-07T03:05:06.804Z,101130.50
2019-06-07T03:07:44.823Z,101133.92
2019-06-07T03:10:15.685Z,101133.92
2019-06-07T03:12:48.742Z,101140.61
2019-06-07T03:15:37.350Z,101140.34
2019-06-07T03:18:11.118Z,101151.30
2019-06-07T03:21:04.332Z,101149.40
2019-06-07T03:23:18.279Z,101143.47
2019-06-07T03:26:00.150Z,101146.52
2019-06-07T03:28:34.253Z,101144.34
2019-06-07T03:31:03.414Z,101139.48
2019-06-07T03:33:42.816Z,101140.73
2019-06-07T03:36:23.468Z,101148.35
2019-06-07T03:38:43.063Z,101151.34
2019-06-07T03:41:13.252Z,101157.74
2019-06-07T03:43:46.066Z,101161.18
2019-06-07T03:46:16.192Z,101160.48
2019-06-07T03:48:46.674Z,101163.27
2019-06-07T03:51:25.374Z,101164.98
2019-06-07T03:53:52.205Z,101170.61
2019-06-07T03:56:24.292Z,101165.84
2019-06-07T03:58:59.171Z,101165.06
2019-06-07T04:01:35.574Z,101156.59
2019-06-07T04:04:07.996Z,101155.08
2019-06-07T04:06:42.382Z,101156.73
2019-06-07T04:09:17.062Z,101158.11
2019-06-07T04:11:48.680Z,101167.00
2019-06-07T04:14:22.035Z,101174.36
2019-06-07T04:16:53.643Z,101175.89
2019-06-07T04:19:23.668Z,101170.38
2019-06-07T04:21:54.138Z,101165.66
2019-06-07T04:24:24.629Z,101171.30
2019-06-07T04:26:54.628Z,101179.77
2019-06-07T04:29:36.511Z,101180.10
2019-06-07T04:32:04.391Z,101185.55
2019-06-07T04:34:37.517Z,101182.43
2019-06-07T04:37:09.718Z,101188.19
2019-06-07T04:39:44.935Z,101177.36
2019-06-07T04:42:18.246Z,101188.66
2019-06-07T04:44:54.463Z,101185.80
2019-06-07T04:47:33.347Z,101190.42
2019-06-07T04:50:03.711Z,101182.86
2019-06-07T04:52:39.861Z,101186.34
2019-06-07T04:55:07.677Z,101178.20
2019-06-07T04:57:40.384Z,101182.61
2019-06-07T05:00:34.298Z,101182.67
2019-06-07T05:02:44.572Z,101186.00
2019-06-07T05:05:14.591Z,101177.20
2019-06-07T05:07:46.354Z,101182.11
2019-06-07T05:10:16.924Z,101176.37
2019-06-07T05:12:46.942Z,101178.50
2019-06-07T05:15:17.282Z,101174.47
2019-06-07T05:17:49.236Z,101173.27
2019-06-07T05:20:19.374Z,101167.19
2019-06-07T05:22:49.456Z,101168.09
2019-06-07T05:25:19.554Z,101170.05
2019-06-07T05:27:49.543Z,101172.47
2019-06-07T05:33:07.044Z,101182.73
2019-06-07T05:35:41.071Z,101176.73
2019-06-07T05:38:09.766Z,101171.92
2019-06-07T05:40:47.971Z,101178.92
2019-06-07T05:43:25.509Z,101177.77
2019-06-07T05:45:55.678Z,101174.11
2019-06-07T05:48:26.804Z,101176.55
2019-06-07T05:50:57.718Z,101175.90
2019-06-07T05:53:28.052Z,101175.66
2019-06-07T05:56:01.088Z,101185.35
2019-06-07T05:58:31.108Z,101185.19
2019-06-07T06:01:41.701Z,101176.73
2019-06-07T06:03:35.059Z,101179.08
2019-06-07T06:06:05.170Z,101181.93
2019-06-07T06:08:39.477Z,101174.16
2019-06-07T06:11:07.156Z,101171.38
2019-06-07T06:13:49.396Z,101177.88
2019-06-07T06:16:11.831Z,101186.41
2019-06-07T06:18:45.768Z,101185.51
2019-06-07T06:21:19.464Z,101179.08
2019-06-07T06:23:50.838Z,101188.23
2019-06-07T06:26:17.639Z,101184.57
2019-06-07T06:28:49.745Z,101188.02
2019-06-07T06:31:19.339Z,101183.14
2019-06-07T06:33:50.143Z,101183.20
2019-06-07T06:36:21.252Z,101180.62
2019-06-07T06:38:51.817Z,101168.60
2019-06-07T06:41:21.972Z,101165.63
2019-06-07T06:43:52.844Z,101153.63
2019-06-07T06:46:38.244Z,101153.52
2019-06-07T06:48:55.651Z,101154.34
2019-06-07T06:51:28.900Z,101155.30
2019-06-07T06:53:58.929Z,101159.92
2019-06-07T06:56:28.950Z,101157.41
2019-06-07T06:59:35.072Z,101153.20
2019-06-07T07:01:30.841Z,101155.43
2019-06-07T07:04:12.146Z,101155.70
2019-06-07T07:06:33.737Z,101156.35
2019-06-07T07:09:05.091Z,101168.02
2019-06-07T07:11:52.245Z,101162.92
2019-06-07T07:14:06.877Z,101158.13
2019-06-07T07:16:36.886Z,101163.32
2019-06-07T07:19:06.877Z,101163.51
2019-06-07T07:21:36.895Z,101159.63
2019-06-07T07:24:21.250Z,101163.41
2019-06-07T07:26:45.207Z,101166.35
2019-06-07T07:29:16.297Z,101159.48
2019-06-07T07:31:50.265Z,101151.09
2019-06-07T07:34:33.723Z,101155.98
2019-06-07T07:36:52.936Z,101152.44
2019-06-07T07:39:24.303Z,101147.42
2019-06-07T07:42:18.217Z,101144.02
2019-06-07T07:44:26.013Z,101145.55
2019-06-07T07:46:56.754Z,101150.78
2019-06-07T07:49:27.914Z,101145.09
2019-06-07T07:51:59.038Z,101138.91
2019-06-07T07:54:30.326Z,101139.30
2019-06-07T07:57:00.336Z,101132.56
2019-06-07T07:59:41.959Z,101134.70
2019-06-07T08:02:02.762Z,101127.80
2019-06-07T08:05:12.672Z,101126.88
2019-06-07T08:07:04.937Z,101115.98
2019-06-07T08:09:36.591Z,101108.78
2019-06-07T08:12:06.588Z,101106.41
2019-06-07T08:14:37.215Z,101109.91
2019-06-07T08:17:11.697Z,101104.97
2019-06-07T08:19:42.792Z,101100.63
2019-06-07T08:22:12.786Z,101091.80
2019-06-07T08:24:43.034Z,101098.75
2019-06-07T08:27:25.894Z,101084.81
2019-06-07T08:30:00.608Z,101085.97
2019-06-07T08:32:16.440Z,101093.19
2019-06-07T08:34:49.071Z,101087.59
2019-06-07T08:37:21.157Z,101089.48
2019-06-07T08:39:52.847Z,101084.16
2019-06-07T08:42:36.500Z,101081.13
2019-06-07T08:45:01.581Z,101084.08
2019-06-07T08:47:26.358Z,101075.81
2019-06-07T08:50:04.393Z,101073.67
2019-06-07T08:52:29.629Z,101080.83
2019-06-07T08:55:03.381Z,101080.52
2019-06-07T08:57:31.579Z,101072.42
2019-06-07T09:00:15.007Z,101071.93
2019-06-07T09:02:37.071Z,101064.58
2019-06-07T09:05:12.321Z,101054.52
2019-06-07T09:07:41.154Z,101062.06
2019-06-07T09:10:14.392Z,101050.31
2019-06-07T09:12:43.749Z,101055.56
2019-06-07T09:15:22.902Z,101051.41
2019-06-07T09:18:30.635Z,101055.91
2019-06-07T09:20:35.775Z,101052.38
2019-06-07T09:22:59.052Z,101053.83
2019-06-07T09:25:27.806Z,101042.39
2019-06-07T09:28:00.552Z,101044.73
2019-06-07T09:30:44.013Z,101050.37
2019-06-07T09:33:14.467Z,101041.82
2019-06-07T09:35:45.617Z,101039.59
2019-06-07T09:38:25.768Z,101041.64
2019-06-07T09:40:51.962Z,101029.66
2019-06-07T09:45:53.964Z,101023.79
2019-06-07T09:49:09.159Z,101018.31
2019-06-07T09:51:02.108Z,101024.45
2019-06-07T09:53:27.564Z,101020.58
2019-06-07T09:56:02.846Z,101018.05
2019-06-07T09:58:51.128Z,101012.98
2019-06-07T10:03:33.279Z,101021.23
2019-06-07T10:06:12.362Z,101024.84
2019-06-07T10:11:08.973Z,101013.01
2019-06-07T10:13:39.472Z,101010.37
2019-06-07T10:16:12.851Z,101004.23
2019-06-07T10:18:43.257Z,100999.64
2019-06-07T10:21:15.128Z,100997.81
2019-06-07T10:23:45.111Z,100989.91
2019-06-07T10:26:15.194Z,100981.04
2019-06-07T10:28:46.798Z,100986.67
2019-06-07T10:31:16.954Z,100984.09
2019-06-07T10:33:46.959Z,100980.94
2019-06-07T10:36:17.159Z,100971.83
2019-06-07T10:38:48.704Z,100977.52
2019-06-07T10:41:19.015Z,100968.11
2019-06-07T10:43:49.091Z,100958.58
2019-06-07T10:46:19.187Z,100963.40
2019-06-07T10:48:49.612Z,100954.48
2019-06-07T10:51:21.179Z,100960.55
2019-06-07T10:53:51.191Z,100944.34
2019-06-07T10:56:21.191Z,100951.13
2019-06-07T10:58:51.271Z,100949.98
2019-06-07T11:01:21.302Z,100942.24
2019-06-07T11:03:51.362Z,100932.04
2019-06-07T11:06:24.242Z,100930.48
2019-06-07T11:08:54.229Z,100922.64
2019-06-07T11:11:24.267Z,100924.84
2019-06-07T11:13:54.266Z,100929.31
2019-06-07T11:16:24.582Z,100920.46
2019-06-07T11:18:54.835Z,100915.53
2019-06-07T11:21:24.946Z,100912.48
2019-06-07T11:23:57.857Z,100916.62
2019-06-07T11:26:30.628Z,100902.70
2019-06-07T11:29:00.702Z,100910.95
2019-06-07T11:31:31.513Z,100908.28
2019-06-07T11:34:03.850Z,100909.11
2019-06-07T11:36:33.927Z,100900.86
2019-06-07T11:39:15.418Z,100892.59
2019-06-07T11:41:45.421Z,100896.46
2019-06-07T11:44:15.426Z,100882.04
2019-06-07T11:46:45.514Z,100876.66
2019-06-07T11:49:21.963Z,100882.25
2019-06-07T11:51:53.824Z,100865.53
2019-06-07T11:54:24.805Z,100876.30
2019-06-07T11:56:55.772Z,100871.00
2019-06-07T11:59:25.772Z,100854.06
2019-06-07T12:01:58.342Z,100854.05
2019-06-07T12:04:34.572Z,100853.38
2019-06-07T12:07:00.875Z,100849.83
2019-06-07T12:09:30.965Z,100849.98
2019-06-07T12:12:00.969Z,100844.74
2019-06-07T12:14:31.088Z,100836.49
2019-06-07T12:17:01.225Z,100838.05
2019-06-07T12:19:31.408Z,100826.78
2019-06-07T12:22:01.482Z,100835.19
2019-06-07T12:24:33.142Z,100819.77
2019-06-07T12:27:03.163Z,100820.86
2019-06-07T12:29:34.041Z,100806.42
2019-06-07T12:32:04.297Z,100806.87
2019-06-07T12:37:39.329Z,100799.37
2019-06-07T12:39:55.138Z,100789.70
2019-06-07T12:42:25.169Z,100794.05
2019-06-07T12:45:01.396Z,100797.34
2019-06-07T12:47:31.949Z,100793.61
2019-06-07T12:50:01.993Z,100785.16
2019-06-07T12:52:32.083Z,100784.11
2019-06-07T12:55:02.279Z,100780.06
2019-06-07T12:57:35.658Z,100782.84
2019-06-07T13:00:13.917Z,100772.10
2019-06-07T13:02:44.337Z,100773.38
2019-06-07T13:05:15.329Z,100760.41
2019-06-07T13:07:45.465Z,100758.70
2019-06-07T13:10:17.900Z,100763.38
2019-06-07T13:12:48.108Z,100764.28
2019-06-07T13:15:20.692Z,100757.66
2019-06-07T13:17:50.162Z,100748.06
2019-06-07T13:20:20.583Z,100744.67
2019-06-07T13:22:50.674Z,100746.35
2019-06-07T13:25:41.151Z,100740.34
2019-06-07T13:27:55.843Z,100736.95
2019-06-07T13:30:26.159Z,100734.86
2019-06-07T13:33:01.908Z,100736.53
2019-06-07T13:35:31.617Z,100738.75
2019-06-07T13:38:01.657Z,100737.36
2019-06-07T13:40:34.475Z,100738.95
2019-06-07T13:43:06.799Z,100732.37
2019-06-07T13:45:36.825Z,100721.84
2019-06-07T13:48:06.930Z,100725.88
2019-06-07T13:50:36.934Z,100721.98
2019-06-07T13:53:07.026Z,100719.45
2019-06-07T13:55:39.156Z,100721.23
2019-06-07T13:58:10.228Z,100714.55
2019-06-07T14:00:41.830Z,100712.72
2019-06-07T14:03:15.670Z,100712.50
2019-06-07T14:05:48.450Z,100714.16
2019-06-07T14:08:23.333Z,100703.48
2019-06-07T14:10:56.496Z,100694.06
2019-06-07T14:13:28.073Z,100697.98
2019-06-07T14:16:03.247Z,100692.79
2019-06-07T14:18:33.235Z,100690.12
2019-06-07T14:21:03.325Z,100687.98
2019-06-07T14:23:48.161Z,100677.66
2019-06-07T14:26:06.616Z,100684.19
2019-06-07T14:28:36.635Z,100670.13
2019-06-07T14:31:06.625Z,100669.34
2019-06-07T14:33:36.622Z,100672.06
2019-06-07T14:36:06.710Z,100662.77
2019-06-07T14:38:37.655Z,100656.64
2019-06-07T14:41:08.108Z,100662.65
2019-06-07T14:43:40.263Z,100649.96
2019-06-07T14:46:10.906Z,100648.69
2019-06-07T14:48:43.902Z,100640.61
2019-06-07T14:51:17.210Z,100658.11
2019-06-07T14:53:48.787Z,100642.69
2019-06-07T14:56:24.896Z,100632.68
2019-06-07T14:58:58.365Z,100635.13
2019-06-07T15:01:33.357Z,100627.23
2019-06-07T15:04:05.245Z,100630.27
2019-06-07T15:06:36.663Z,100627.97
2019-06-07T15:09:07.875Z,100626.41
2019-06-07T15:11:39.226Z,100622.88
2019-06-07T15:14:09.384Z,100617.38
2019-06-07T15:16:39.436Z,100617.57
2019-06-07T15:19:13.696Z,100601.27
2019-06-07T15:21:44.281Z,100596.97
2019-06-07T15:24:14.766Z,100595.20
2019-06-07T15:26:44.767Z,100592.79
2019-06-07T15:29:16.489Z,100594.41
2019-06-07T15:31:46.597Z,100577.47
2019-06-07T15:34:16.592Z,100578.55
2019-06-07T15:36:46.889Z,100584.01
2019-06-07T15:39:16.928Z,100586.35
2019-06-07T15:41:51.513Z,100575.46
2019-06-07T15:44:22.014Z,100568.31
2019-06-07T15:46:52.029Z,100568.25
2019-06-07T15:49:22.056Z,100557.52
2019-06-07T15:51:52.055Z,100548.89
2019-06-07T15:54:22.086Z,100547.06
2019-06-07T15:56:52.104Z,100535.20
2019-06-07T15:59:22.133Z,100526.30
2019-06-07T16:01:59.409Z,100493.41
2019-06-07T16:04:29.509Z,100485.92
2019-06-07T16:06:59.606Z,100487.27
2019-06-07T16:09:29.873Z,100491.66
2019-06-07T16:11:59.908Z,100493.18
2019-06-07T16:14:29.937Z,100484.96
2019-06-07T16:16:59.946Z,100477.36
2019-06-07T16:19:30.058Z,100463.45
2019-06-07T16:22:00.062Z,100463.96
2019-06-07T16:24:30.086Z,100467.41
2019-06-07T16:27:00.095Z,100470.56
2019-06-07T16:29:30.186Z,100460.73
2019-06-07T16:32:00.210Z,100464.17
2019-06-07T16:34:30.235Z,100475.91
2019-06-07T16:37:00.408Z,100484.70
2019-06-07T16:39:33.223Z,100485.48
2019-06-07T16:42:05.072Z,100490.80
2019-06-07T16:44:40.768Z,100487.13
2019-06-07T16:47:10.862Z,100489.70
2019-06-07T16:49:41.149Z,100482.23
2019-06-07T16:52:12.801Z,100476.41
2019-06-07T16:54:43.602Z,100472.52
2019-06-07T16:57:13.861Z,100470.56
2019-06-07T16:59:49.199Z,100478.28
2019-06-07T17:02:18.929Z,100470.16
2019-06-07T17:04:48.966Z,100473.69
2019-06-07T17:07:19.042Z,100481.16
2019-06-07T17:09:50.030Z,100478.11
2019-06-07T17:12:23.296Z,100486.39
2019-06-07T17:14:53.346Z,100486.48
2019-06-07T17:17:23.375Z,100492.39
2019-06-07T17:19:55.082Z,100482.48
2019-06-07T17:22:25.166Z,100476.58
2019-06-07T17:24:55.242Z,100485.03
2019-06-07T17:27:25.279Z,100485.45
2019-06-07T17:29:55.360Z,100481.91
2019-06-07T17:32:25.588Z,100471.16
2019-06-07T17:34:55.597Z,100474.11
2019-06-07T17:37:25.624Z,100471.94
2019-06-07T17:39:55.718Z,100482.17
2019-06-07T17:42:25.760Z,100475.56
2019-06-07T17:44:55.898Z,100473.27
2019-06-07T17:47:25.963Z,100473.81
2019-06-07T17:49:55.985Z,100466.58
2019-06-07T17:52:26.017Z,100473.25
2019-06-07T17:54:56.124Z,100489.73
2019-06-07T17:57:26.142Z,100482.49
2019-06-07T17:59:57.262Z,100480.87
2019-06-07T18:02:29.284Z,100479.70
2019-06-07T18:05:01.307Z,100482.78
2019-06-07T18:07:32.218Z,100478.79
2019-06-07T18:10:03.980Z,100468.03
2019-06-07T18:12:34.002Z,100478.88
2019-06-07T18:15:08.745Z,100477.83
2019-06-07T18:17:38.838Z,100473.40
2019-06-07T18:20:09.821Z,100471.88
2019-06-07T18:22:39.898Z,100461.70
2019-06-07T18:25:10.680Z,100465.64
2019-06-07T18:27:40.711Z,100464.39
2019-06-07T18:30:12.225Z,100466.48
2019-06-07T18:32:42.432Z,100468.61
2019-06-07T18:35:12.536Z,100464.34
2019-06-07T18:37:42.576Z,100466.47
2019-06-07T18:40:12.744Z,100469.06
2019-06-07T18:42:42.759Z,100464.49
2019-06-07T18:45:13.224Z,100463.64
2019-06-07T18:47:43.246Z,100456.41
2019-06-07T18:50:13.350Z,100439.98
2019-06-07T18:52:46.564Z,100431.92
2019-06-07T18:55:19.787Z,100446.43
2019-06-07T18:57:50.167Z,100452.06
2019-06-07T19:00:22.408Z,100458.76
2019-06-07T19:02:53.881Z,100462.27
2019-06-07T19:05:24.242Z,100461.38
2019-06-07T19:07:54.668Z,100465.00
2019-06-07T19:10:26.787Z,100463.56
2019-06-07T19:13:00.345Z,100458.05
2019-06-07T19:15:31.444Z,100466.41
2019-06-07T19:18:01.866Z,100469.47
2019-06-07T19:20:33.719Z,100483.42
2019-06-07T19:23:04.471Z,100481.13
2019-06-07T19:25:34.903Z,100487.91
2019-06-07T19:28:05.218Z,100487.11
2019-06-07T19:30:35.253Z,100490.27
2019-06-07T19:33:05.971Z,100500.42
2019-06-07T19:35:37.718Z,100501.75
2019-06-07T19:38:09.677Z,100504.28
2019-06-07T19:40:40.538Z,100499.56
2019-06-07T19:43:12.207Z,100499.23
2019-06-07T19:45:42.466Z,100513.60
2019-06-07T19:48:12.582Z,100522.31
2019-06-07T19:50:42.666Z,100525.58
2019-06-07T19:53:13.768Z,100532.61
2019-06-07T19:55:46.913Z,100540.47
2019-06-07T19:58:18.822Z,100541.33
2019-06-07T20:00:48.818Z,100545.45
2019-06-07T20:03:19.111Z,100556.22
2019-06-07T20:05:49.335Z,100554.17
2019-06-07T20:08:19.446Z,100546.57
2019-06-07T20:10:49.460Z,100546.06
2019-06-07T20:13:20.589Z,100537.73
2019-06-07T20:15:50.610Z,100534.95
2019-06-07T20:18:22.208Z,100537.36
2019-06-07T20:20:56.351Z,100535.56
2019-06-07T20:23:26.465Z,100536.80
2019-06-07T20:25:56.538Z,100538.34
2019-06-07T20:28:26.824Z,100542.34
2019-06-07T20:30:57.713Z,100540.06
2019-06-07T20:33:30.880Z,100551.30
2019-06-07T20:36:00.950Z,100538.73
2019-06-07T20:38:30.994Z,100559.31
2019-06-07T20:41:01.215Z,100629.52
2019-06-07T20:43:31.388Z,100676.73
2019-06-07T20:46:03.796Z,100735.25
2019-06-07T20:48:37.735Z,100774.52
2019-06-07T20:51:09.340Z,100841.83
2019-06-07T20:53:39.780Z,100879.93
2019-06-07T20:56:09.781Z,100907.73
2019-06-07T20:58:39.808Z,100848.40
2019-06-07T21:01:09.790Z,100775.45
2019-06-07T21:03:40.042Z,100734.50
2019-06-07T21:06:10.094Z,100690.70
2019-06-07T21:08:40.142Z,100686.06
2019-06-07T21:11:10.161Z,100671.10
2019-06-07T21:13:40.292Z,100701.64
2019-06-07T21:16:10.534Z,100776.97
2019-06-07T21:18:40.588Z,100815.80
2019-06-07T21:21:10.734Z,100806.83
2019-06-07T21:23:42.526Z,100818.66
2019-06-07T21:26:12.536Z,100821.55
2019-06-07T21:28:42.623Z,100811.02
2019-06-07T21:31:14.150Z,100830.08
2019-06-07T21:33:44.155Z,100848.66
2019-06-07T21:36:14.163Z,100862.36
2019-06-07T21:38:44.243Z,100905.97
2019-06-07T21:41:15.803Z,100917.54
2019-06-07T21:43:45.810Z,100906.22
2019-06-07T21:46:20.580Z,100914.28
2019-06-07T21:48:47.707Z,100925.28
2019-06-07T21:51:17.795Z,100925.62
2019-06-07T21:53:47.785Z,100900.27
2019-06-07T21:56:17.828Z,100875.07
2019-06-07T21:58:47.822Z,100886.55
2019-06-07T22:01:20.062Z,100876.25
2019-06-07T22:03:50.155Z,100887.16
2019-06-07T22:06:20.316Z,100878.73
2019-06-07T22:08:50.388Z,100871.00
2019-06-07T22:11:20.489Z,100870.67
2019-06-07T22:13:50.556Z,100889.66
2019-06-07T22:16:28.225Z,100932.69
2019-06-07T22:18:52.410Z,100940.75
2019-06-07T22:21:22.378Z,100949.89
2019-06-07T22:23:52.386Z,100966.42
2019-06-07T22:26:22.381Z,100963.16
2019-06-07T22:28:52.397Z,100953.16
2019-06-07T22:31:22.385Z,100929.67
2019-06-07T22:33:52.400Z,100902.38
2019-06-07T22:36:22.399Z,100894.72
2019-06-07T22:38:52.433Z,100889.13
2019-06-07T22:41:22.419Z,100865.08
2019-06-07T22:43:52.506Z,100859.81
2019-06-07T22:46:36.445Z,100849.13
2019-06-07T22:48:54.514Z,100811.73
2019-06-07T22:51:24.570Z,100814.08
2019-06-07T22:53:54.569Z,100808.35
2019-06-07T22:56:44.060Z,100803.20
2019-06-07T22:59:16.974Z,100790.19
2019-06-07T23:01:45.832Z,100789.35
2019-06-07T23:04:16.700Z,100815.08
2019-06-07T23:06:47.849Z,100830.42
2019-06-07T23:09:19.681Z,100855.99
2019-06-07T23:11:49.749Z,100896.03
2019-06-07T23:14:19.818Z,100936.48
2019-06-07T23:16:55.317Z,100936.86
2019-06-07T23:19:25.961Z,100939.01
2019-06-07T23:21:56.598Z,100943.38
2019-06-07T23:24:26.636Z,100943.66
2019-06-07T23:26:57.090Z,100942.88
2019-06-07T23:29:27.104Z,100941.02
2019-06-07T23:31:57.091Z,100922.50
2019-06-07T23:34:27.120Z,100908.95
2019-06-07T23:36:57.759Z,100894.53
2019-06-07T23:39:27.754Z,100913.11
2019-06-07T23:41:57.775Z,100910.43
2019-06-07T23:44:27.767Z,100911.67
2019-06-07T23:47:10.709Z,100924.97
2019-06-07T23:49:32.647Z,100936.08
2019-06-07T23:52:03.738Z,100952.42
2019-06-07T23:54:33.811Z,100951.88
2019-06-07T23:57:03.894Z,100946.91
2019-06-07T23:59:34.528Z,100929.53
